San Patricio, Texas
Current Conditions -  °F | °C
As of 7:55 AM on Friday 31 Oct 2014 (Local Time) from KBEA Reporting Station
Thunderstorm Thunderstorm  
Wind Chill: 69°   Ceiling: 1000
Heat Index: 69°   Visibility: 10mi
Dew Point: 69°   Wind: 10mph
Humidity: 100%   Direction: 40°NE
Pressure: 30.16"   Gusts: NA
Location:  28.0654°N, 97.7489°W
Report Text: KBEA 311255Z AUTO 04009KT 10SM -TSRA BKN010 BKN016 OVC021 21/21 A3016 RMK AO2 LTG DSNT ALQS P0010 T02050205
Loading
Personal Weather Stations






























Interactive Weather Map
Tropical Storm Tracking
New forecast layout! Learn more

10-Day Weather Forecast

Advertisements
Track Severe Weather on mobile